sensor_id;sensor_type;location;lat;lon;timestamp;P1;durP1;ratioP1;P2;durP2;ratioP2
7539;SDS011;3811;49.006;12.076;2023-06-24T00:00:44;3.17;;;2.87;;
7539;SDS011;3811;49.006;12.076;2023-06-24T00:03:11;2.93;;;2.60;;
7539;SDS011;3811;49.006;12.076;2023-06-24T00:05:42;3.43;;;2.77;;
7539;SDS011;3811;49.006;12.076;2023-06-24T00:08:14;2.50;;;2.30;;
7539;SDS011;3811;49.006;12.076;2023-06-24T00:10:44;2.57;;;2.37;;
7539;SDS011;3811;49.006;12.076;2023-06-24T00:13:11;2.53;;;2.30;;
7539;SDS011;3811;49.006;12.076;2023-06-24T00:15:39;3.40;;;3.10;;
7539;SDS011;3811;49.006;12.076;2023-06-24T00:18:08;3.03;;;2.83;;
7539;SDS011;3811;49.006;12.076;2023-06-24T00:20:35;3.27;;;2.97;;
7539;SDS011;3811;49.006;12.076;2023-06-24T00:23:02;3.00;;;2.63;;
7539;SDS011;3811;49.006;12.076;2023-06-24T00:25:29;2.80;;;2.60;;
7539;SDS011;3811;49.006;12.076;2023-06-24T00:27:58;3.07;;;2.80;;
7539;SDS011;3811;49.006;12.076;2023-06-24T00:30:25;4.43;;;2.87;;
7539;SDS011;3811;49.006;12.076;2023-06-24T00:32:54;3.30;;;3.00;;
7539;SDS011;3811;49.006;12.076;2023-06-24T00:35:23;4.47;;;3.00;;
7539;SDS011;3811;49.006;12.076;2023-06-24T00:37:51;3.10;;;2.90;;
7539;SDS011;3811;49.006;12.076;2023-06-24T00:40:23;3.33;;;3.00;;
7539;SDS011;3811;49.006;12.076;2023-06-24T00:42:51;3.90;;;3.60;;
7539;SDS011;3811;49.006;12.076;2023-06-24T00:45:19;3.20;;;2.93;;
7539;SDS011;3811;49.006;12.076;2023-06-24T00:47:47;3.20;;;3.00;;
7539;SDS011;3811;49.006;12.076;2023-06-24T00:50:14;3.87;;;3.53;;
7539;SDS011;3811;49.006;12.076;2023-06-24T00:52:41;3.70;;;3.27;;
7539;SDS011;3811;49.006;12.076;2023-06-24T00:55:08;3.80;;;3.50;;
7539;SDS011;3811;49.006;12.076;2023-06-24T00:57:37;4.83;;;3.67;;
7539;SDS011;3811;49.006;12.076;2023-06-24T01:00:05;3.97;;;3.57;;
7539;SDS011;3811;49.006;12.076;2023-06-24T01:02:36;4.20;;;3.50;;
7539;SDS011;3811;49.006;12.076;2023-06-24T01:05:04;3.77;;;3.43;;
7539;SDS011;3811;49.006;12.076;2023-06-24T01:07:33;3.70;;;3.30;;
7539;SDS011;3811;49.006;12.076;2023-06-24T01:10:03;3.97;;;3.57;;
7539;SDS011;3811;49.006;12.076;2023-06-24T01:12:33;3.33;;;3.13;;
7539;SDS011;3811;49.006;12.076;2023-06-24T01:15:01;3.87;;;3.43;;
7539;SDS011;3811;49.006;12.076;2023-06-24T01:17:30;4.00;;;3.70;;
7539;SDS011;3811;49.006;12.076;2023-06-24T01:20:06;4.50;;;4.00;;
7539;SDS011;3811;49.006;12.076;2023-06-24T01:22:44;3.43;;;3.13;;
7539;SDS011;3811;49.006;12.076;2023-06-24T01:25:28;3.70;;;3.30;;
7539;SDS011;3811;49.006;12.076;2023-06-24T01:28:05;3.83;;;3.53;;
7539;SDS011;3811;49.006;12.076;2023-06-24T01:30:54;3.50;;;3.20;;
7539;SDS011;3811;49.006;12.076;2023-06-24T01:33:45;4.03;;;3.70;;
7539;SDS011;3811;49.006;12.076;2023-06-24T01:36:15;3.90;;;3.60;;
7539;SDS011;3811;49.006;12.076;2023-06-24T01:38:44;3.70;;;3.40;;
7539;SDS011;3811;49.006;12.076;2023-06-24T01:41:14;3.93;;;3.63;;
7539;SDS011;3811;49.006;12.076;2023-06-24T01:43:45;4.00;;;3.70;;
7539;SDS011;3811;49.006;12.076;2023-06-24T01:46:14;3.93;;;3.63;;
7539;SDS011;3811;49.006;12.076;2023-06-24T01:48:44;5.17;;;4.30;;
7539;SDS011;3811;49.006;12.076;2023-06-24T01:51:13;4.33;;;3.50;;
7539;SDS011;3811;49.006;12.076;2023-06-24T01:53:42;4.00;;;3.70;;
7539;SDS011;3811;49.006;12.076;2023-06-24T01:56:13;4.40;;;4.10;;
7539;SDS011;3811;49.006;12.076;2023-06-24T01:58:43;4.60;;;4.20;;
7539;SDS011;3811;49.006;12.076;2023-06-24T02:01:12;4.23;;;3.93;;
7539;SDS011;3811;49.006;12.076;2023-06-24T02:03:40;4.73;;;3.73;;
7539;SDS011;3811;49.006;12.076;2023-06-24T02:06:10;4.87;;;4.27;;
7539;SDS011;3811;49.006;12.076;2023-06-24T02:08:39;4.40;;;3.87;;
7539;SDS011;3811;49.006;12.076;2023-06-24T02:11:09;5.00;;;4.60;;
7539;SDS011;3811;49.006;12.076;2023-06-24T02:13:38;5.67;;;4.53;;
7539;SDS011;3811;49.006;12.076;2023-06-24T02:16:12;5.00;;;4.50;;
7539;SDS011;3811;49.006;12.076;2023-06-24T02:18:40;6.37;;;4.57;;
7539;SDS011;3811;49.006;12.076;2023-06-24T02:21:09;5.17;;;4.77;;
7539;SDS011;3811;49.006;12.076;2023-06-24T02:23:37;6.60;;;4.80;;
7539;SDS011;3811;49.006;12.076;2023-06-24T02:26:05;4.87;;;4.37;;
7539;SDS011;3811;49.006;12.076;2023-06-24T02:28:33;5.47;;;4.20;;
7539;SDS011;3811;49.006;12.076;2023-06-24T02:31:02;5.63;;;4.50;;
7539;SDS011;3811;49.006;12.076;2023-06-24T02:33:29;5.27;;;4.77;;
7539;SDS011;3811;49.006;12.076;2023-06-24T02:35:57;5.73;;;5.13;;
7539;SDS011;3811;49.006;12.076;2023-06-24T02:38:26;4.93;;;4.53;;
7539;SDS011;3811;49.006;12.076;2023-06-24T02:40:53;4.80;;;4.40;;
7539;SDS011;3811;49.006;12.076;2023-06-24T02:43:21;4.77;;;4.27;;
7539;SDS011;3811;49.006;12.076;2023-06-24T02:45:48;4.97;;;4.47;;
7539;SDS011;3811;49.006;12.076;2023-06-24T02:48:16;4.50;;;4.10;;
7539;SDS011;3811;49.006;12.076;2023-06-24T02:50:44;5.33;;;4.10;;
7539;SDS011;3811;49.006;12.076;2023-06-24T02:53:13;5.47;;;4.97;;
7539;SDS011;3811;49.006;12.076;2023-06-24T02:55:42;5.57;;;4.80;;
7539;SDS011;3811;49.006;12.076;2023-06-24T02:58:11;5.47;;;4.97;;
7539;SDS011;3811;49.006;12.076;2023-06-24T03:00:54;5.67;;;5.17;;
7539;SDS011;3811;49.006;12.076;2023-06-24T03:03:30;6.27;;;4.90;;
7539;SDS011;3811;49.006;12.076;2023-06-24T03:05:58;5.47;;;4.90;;
7539;SDS011;3811;49.006;12.076;2023-06-24T03:08:28;5.20;;;4.70;;
7539;SDS011;3811;49.006;12.076;2023-06-24T03:10:57;5.50;;;5.00;;
7539;SDS011;3811;49.006;12.076;2023-06-24T03:13:28;5.40;;;4.90;;
7539;SDS011;3811;49.006;12.076;2023-06-24T03:16:24;5.53;;;5.03;;
7539;SDS011;3811;49.006;12.076;2023-06-24T03:19:00;5.80;;;5.20;;
7539;SDS011;3811;49.006;12.076;2023-06-24T03:21:28;6.40;;;5.27;;
7539;SDS011;3811;49.006;12.076;2023-06-24T03:24:04;5.90;;;4.93;;
7539;SDS011;3811;49.006;12.076;2023-06-24T03:26:33;5.47;;;4.97;;
7539;SDS011;3811;49.006;12.076;2023-06-24T03:29:01;4.90;;;4.40;;
7539;SDS011;3811;49.006;12.076;2023-06-24T03:31:31;5.30;;;4.80;;
7539;SDS011;3811;49.006;12.076;2023-06-24T03:33:59;5.20;;;4.70;;
7539;SDS011;3811;49.006;12.076;2023-06-24T03:36:27;5.20;;;4.70;;
7539;SDS011;3811;49.006;12.076;2023-06-24T03:38:54;5.00;;;4.60;;
7539;SDS011;3811;49.006;12.076;2023-06-24T03:41:22;6.00;;;5.10;;
7539;SDS011;3811;49.006;12.076;2023-06-24T03:43:53;5.10;;;4.70;;
7539;SDS011;3811;49.006;12.076;2023-06-24T03:46:21;4.53;;;4.13;;
7539;SDS011;3811;49.006;12.076;2023-06-24T03:48:49;5.00;;;4.53;;
7539;SDS011;3811;49.006;12.076;2023-06-24T03:51:16;4.50;;;4.10;;
7539;SDS011;3811;49.006;12.076;2023-06-24T03:53:44;5.87;;;4.70;;
7539;SDS011;3811;49.006;12.076;2023-06-24T03:56:12;5.30;;;4.80;;
7539;SDS011;3811;49.006;12.076;2023-06-24T03:58:39;5.23;;;4.80;;
7539;SDS011;3811;49.006;12.076;2023-06-24T04:01:07;5.00;;;4.50;;
7539;SDS011;3811;49.006;12.076;2023-06-24T04:03:35;5.07;;;4.57;;
7539;SDS011;3811;49.006;12.076;2023-06-24T04:06:02;6.40;;;5.27;;
7539;SDS011;3811;49.006;12.076;2023-06-24T04:08:29;5.50;;;4.80;;
7539;SDS011;3811;49.006;12.076;2023-06-24T04:10:56;5.07;;;4.63;;
7539;SDS011;3811;49.006;12.076;2023-06-24T04:13:25;6.10;;;4.30;;
7539;SDS011;3811;49.006;12.076;2023-06-24T04:15:52;4.63;;;4.20;;
7539;SDS011;3811;49.006;12.076;2023-06-24T04:18:21;5.27;;;4.77;;
7539;SDS011;3811;49.006;12.076;2023-06-24T04:20:48;5.27;;;3.87;;
7539;SDS011;3811;49.006;12.076;2023-06-24T04:23:17;4.93;;;4.43;;
7539;SDS011;3811;49.006;12.076;2023-06-24T04:25:44;4.80;;;4.30;;
7539;SDS011;3811;49.006;12.076;2023-06-24T04:28:11;6.13;;;4.83;;
7539;SDS011;3811;49.006;12.076;2023-06-24T04:30:38;4.87;;;4.47;;
7539;SDS011;3811;49.006;12.076;2023-06-24T04:33:07;5.40;;;4.70;;
7539;SDS011;3811;49.006;12.076;2023-06-24T04:35:36;4.80;;;4.40;;
7539;SDS011;3811;49.006;12.076;2023-06-24T04:38:03;5.23;;;4.73;;
7539;SDS011;3811;49.006;12.076;2023-06-24T04:40:31;5.50;;;5.00;;
7539;SDS011;3811;49.006;12.076;2023-06-24T04:42:59;4.90;;;4.33;;
7539;SDS011;3811;49.006;12.076;2023-06-24T04:45:26;5.93;;;4.87;;
7539;SDS011;3811;49.006;12.076;2023-06-24T04:47:53;5.30;;;4.77;;
7539;SDS011;3811;49.006;12.076;2023-06-24T04:50:21;5.07;;;4.57;;
7539;SDS011;3811;49.006;12.076;2023-06-24T04:52:53;9.23;;;4.50;;
7539;SDS011;3811;49.006;12.076;2023-06-24T04:55:21;5.27;;;4.77;;
7539;SDS011;3811;49.006;12.076;2023-06-24T04:57:49;6.83;;;5.57;;
7539;SDS011;3811;49.006;12.076;2023-06-24T05:00:16;4.97;;;4.57;;
7539;SDS011;3811;49.006;12.076;2023-06-24T05:02:44;4.80;;;4.23;;
7539;SDS011;3811;49.006;12.076;2023-06-24T05:05:11;4.97;;;4.47;;
7539;SDS011;3811;49.006;12.076;2023-06-24T05:07:38;5.37;;;4.90;;
7539;SDS011;3811;49.006;12.076;2023-06-24T05:10:07;4.70;;;4.30;;
7539;SDS011;3811;49.006;12.076;2023-06-24T05:12:34;5.47;;;4.97;;
7539;SDS011;3811;49.006;12.076;2023-06-24T05:15:02;5.00;;;4.60;;
7539;SDS011;3811;49.006;12.076;2023-06-24T05:17:29;5.17;;;4.67;;
7539;SDS011;3811;49.006;12.076;2023-06-24T05:19:56;5.20;;;4.67;;
7539;SDS011;3811;49.006;12.076;2023-06-24T05:22:23;5.33;;;4.70;;
7539;SDS011;3811;49.006;12.076;2023-06-24T05:24:51;5.93;;;4.60;;
7539;SDS011;3811;49.006;12.076;2023-06-24T05:27:19;5.23;;;4.73;;
7539;SDS011;3811;49.006;12.076;2023-06-24T05:29:46;5.03;;;4.50;;
7539;SDS011;3811;49.006;12.076;2023-06-24T05:32:13;5.50;;;5.00;;
7539;SDS011;3811;49.006;12.076;2023-06-24T05:34:42;5.23;;;4.73;;
7539;SDS011;3811;49.006;12.076;2023-06-24T05:37:09;4.53;;;4.13;;
7539;SDS011;3811;49.006;12.076;2023-06-24T05:39:36;4.93;;;4.53;;
7539;SDS011;3811;49.006;12.076;2023-06-24T05:42:04;5.47;;;4.73;;
7539;SDS011;3811;49.006;12.076;2023-06-24T05:44:32;5.20;;;4.70;;
7539;SDS011;3811;49.006;12.076;2023-06-24T05:47:00;5.13;;;4.63;;
7539;SDS011;3811;49.006;12.076;2023-06-24T05:49:27;5.37;;;4.87;;
7539;SDS011;3811;49.006;12.076;2023-06-24T05:51:54;5.30;;;4.80;;
7539;SDS011;3811;49.006;12.076;2023-06-24T05:54:21;5.30;;;4.80;;
7539;SDS011;3811;49.006;12.076;2023-06-24T05:56:48;6.93;;;4.70;;
7539;SDS011;3811;49.006;12.076;2023-06-24T05:59:15;4.80;;;4.33;;
7539;SDS011;3811;49.006;12.076;2023-06-24T06:01:44;6.13;;;4.83;;
7539;SDS011;3811;49.006;12.076;2023-06-24T06:04:11;5.60;;;5.10;;
7539;SDS011;3811;49.006;12.076;2023-06-24T06:06:38;5.73;;;5.23;;
7539;SDS011;3811;49.006;12.076;2023-06-24T06:09:05;5.40;;;4.90;;
7539;SDS011;3811;49.006;12.076;2023-06-24T06:11:33;5.10;;;4.60;;
7539;SDS011;3811;49.006;12.076;2023-06-24T06:14:00;4.73;;;4.33;;
7539;SDS011;3811;49.006;12.076;2023-06-24T06:16:27;5.43;;;4.97;;
7539;SDS011;3811;49.006;12.076;2023-06-24T06:18:56;7.60;;;5.10;;
7539;SDS011;3811;49.006;12.076;2023-06-24T06:21:24;5.17;;;4.67;;
7539;SDS011;3811;49.006;12.076;2023-06-24T06:23:51;5.17;;;4.60;;
7539;SDS011;3811;49.006;12.076;2023-06-24T06:26:18;5.07;;;4.50;;
7539;SDS011;3811;49.006;12.076;2023-06-24T06:28:45;4.73;;;4.33;;
7539;SDS011;3811;49.006;12.076;2023-06-24T06:31:13;6.10;;;4.53;;
7539;SDS011;3811;49.006;12.076;2023-06-24T06:33:40;6.43;;;4.57;;
7539;SDS011;3811;49.006;12.076;2023-06-24T06:36:08;5.03;;;4.57;;
7539;SDS011;3811;49.006;12.076;2023-06-24T06:38:35;4.67;;;4.27;;
7539;SDS011;3811;49.006;12.076;2023-06-24T06:41:02;4.40;;;4.10;;
7539;SDS011;3811;49.006;12.076;2023-06-24T06:43:30;4.77;;;4.37;;
7539;SDS011;3811;49.006;12.076;2023-06-24T06:45:57;5.10;;;4.23;;
7539;SDS011;3811;49.006;12.076;2023-06-24T06:48:24;4.87;;;4.17;;
7539;SDS011;3811;49.006;12.076;2023-06-24T06:50:51;4.80;;;4.30;;
7539;SDS011;3811;49.006;12.076;2023-06-24T06:53:20;4.60;;;4.20;;
7539;SDS011;3811;49.006;12.076;2023-06-24T06:55:47;5.50;;;4.80;;
7539;SDS011;3811;49.006;12.076;2023-06-24T06:58:14;5.30;;;4.70;;
7539;SDS011;3811;49.006;12.076;2023-06-24T07:00:42;4.50;;;4.10;;
7539;SDS011;3811;49.006;12.076;2023-06-24T07:03:09;4.87;;;4.40;;
7539;SDS011;3811;49.006;12.076;2023-06-24T07:05:36;4.40;;;4.07;;
7539;SDS011;3811;49.006;12.076;2023-06-24T07:08:05;5.33;;;4.83;;
7539;SDS011;3811;49.006;12.076;2023-06-24T07:10:33;4.40;;;4.00;;
7539;SDS011;3811;49.006;12.076;2023-06-24T07:13:00;5.03;;;4.63;;
7539;SDS011;3811;49.006;12.076;2023-06-24T07:15:27;4.97;;;4.47;;
7539;SDS011;3811;49.006;12.076;2023-06-24T07:17:55;4.80;;;4.40;;
7539;SDS011;3811;49.006;12.076;2023-06-24T07:20:22;7.10;;;4.37;;
7539;SDS011;3811;49.006;12.076;2023-06-24T07:22:49;4.93;;;4.40;;
7539;SDS011;3811;49.006;12.076;2023-06-24T07:25:16;5.10;;;4.60;;
7539;SDS011;3811;49.006;12.076;2023-06-24T07:27:45;7.13;;;4.30;;
7539;SDS011;3811;49.006;12.076;2023-06-24T07:30:12;5.33;;;4.47;;
7539;SDS011;3811;49.006;12.076;2023-06-24T07:32:39;4.97;;;4.57;;
7539;SDS011;3811;49.006;12.076;2023-06-24T07:35:07;5.23;;;4.63;;
7539;SDS011;3811;49.006;12.076;2023-06-24T07:37:35;5.23;;;4.73;;
7539;SDS011;3811;49.006;12.076;2023-06-24T07:40:04;5.00;;;4.50;;
7539;SDS011;3811;49.006;12.076;2023-06-24T07:42:33;6.40;;;5.10;;
7539;SDS011;3811;49.006;12.076;2023-06-24T07:45:01;5.30;;;4.67;;
7539;SDS011;3811;49.006;12.076;2023-06-24T07:47:29;5.70;;;5.20;;
7539;SDS011;3811;49.006;12.076;2023-06-24T07:49:57;5.80;;;5.10;;
7539;SDS011;3811;49.006;12.076;2023-06-24T07:52:24;5.47;;;4.97;;
7539;SDS011;3811;49.006;12.076;2023-06-24T07:54:51;5.53;;;5.03;;
7539;SDS011;3811;49.006;12.076;2023-06-24T07:57:18;5.93;;;4.60;;
7539;SDS011;3811;49.006;12.076;2023-06-24T07:59:46;6.23;;;5.27;;
7539;SDS011;3811;49.006;12.076;2023-06-24T08:02:14;4.47;;;4.07;;
7539;SDS011;3811;49.006;12.076;2023-06-24T08:04:42;6.13;;;5.07;;
7539;SDS011;3811;49.006;12.076;2023-06-24T08:07:09;5.47;;;4.97;;
7539;SDS011;3811;49.006;12.076;2023-06-24T08:09:36;5.87;;;5.00;;
7539;SDS011;3811;49.006;12.076;2023-06-24T08:12:04;5.07;;;4.67;;
7539;SDS011;3811;49.006;12.076;2023-06-24T08:14:31;5.63;;;4.53;;
7539;SDS011;3811;49.006;12.076;2023-06-24T08:16:58;5.20;;;4.70;;
7539;SDS011;3811;49.006;12.076;2023-06-24T08:19:27;4.77;;;4.17;;
7539;SDS011;3811;49.006;12.076;2023-06-24T08:21:54;5.23;;;4.70;;
7539;SDS011;3811;49.006;12.076;2023-06-24T08:24:21;5.10;;;4.60;;
7539;SDS011;3811;49.006;12.076;2023-06-24T08:26:48;5.20;;;4.80;;
7539;SDS011;3811;49.006;12.076;2023-06-24T08:29:15;5.50;;;5.07;;
7539;SDS011;3811;49.006;12.076;2023-06-24T08:34:30;5.27;;;4.60;;
7539;SDS011;3811;49.006;12.076;2023-06-24T08:36:56;7.63;;;4.83;;
7539;SDS011;3811;49.006;12.076;2023-06-24T08:39:24;4.70;;;4.30;;
7539;SDS011;3811;49.006;12.076;2023-06-24T08:41:50;4.77;;;4.37;;
7539;SDS011;3811;49.006;12.076;2023-06-24T08:44:18;4.37;;;4.03;;
7539;SDS011;3811;49.006;12.076;2023-06-24T08:46:45;4.77;;;4.37;;
7539;SDS011;3811;49.006;12.076;2023-06-24T08:49:14;4.40;;;4.00;;
7539;SDS011;3811;49.006;12.076;2023-06-24T08:51:54;5.03;;;3.83;;
7539;SDS011;3811;49.006;12.076;2023-06-24T08:54:26;3.67;;;3.37;;
7539;SDS011;3811;49.006;12.076;2023-06-24T08:56:54;4.00;;;3.60;;
7539;SDS011;3811;49.006;12.076;2023-06-24T08:59:21;4.63;;;4.23;;
7539;SDS011;3811;49.006;12.076;2023-06-24T09:01:49;3.80;;;3.50;;
7539;SDS011;3811;49.006;12.076;2023-06-24T09:04:16;4.03;;;3.67;;
7539;SDS011;3811;49.006;12.076;2023-06-24T09:06:44;5.20;;;3.83;;
7539;SDS011;3811;49.006;12.076;2023-06-24T09:09:19;5.63;;;3.57;;
7539;SDS011;3811;49.006;12.076;2023-06-24T09:11:53;4.17;;;3.77;;
7539;SDS011;3811;49.006;12.076;2023-06-24T09:14:21;3.97;;;3.57;;
7539;SDS011;3811;49.006;12.076;2023-06-24T09:16:52;5.63;;;3.50;;
7539;SDS011;3811;49.006;12.076;2023-06-24T09:19:20;3.07;;;2.87;;
7539;SDS011;3811;49.006;12.076;2023-06-24T09:21:47;3.30;;;3.00;;
7539;SDS011;3811;49.006;12.076;2023-06-24T09:24:15;3.47;;;3.13;;
7539;SDS011;3811;49.006;12.076;2023-06-24T09:26:44;3.67;;;3.40;;
7539;SDS011;3811;49.006;12.076;2023-06-24T09:29:12;3.70;;;3.40;;
7539;SDS011;3811;49.006;12.076;2023-06-24T09:31:46;3.80;;;3.50;;
7539;SDS011;3811;49.006;12.076;2023-06-24T09:34:15;3.50;;;3.30;;
7539;SDS011;3811;49.006;12.076;2023-06-24T09:36:42;4.07;;;3.77;;
7539;SDS011;3811;49.006;12.076;2023-06-24T09:39:10;3.70;;;3.40;;
7539;SDS011;3811;49.006;12.076;2023-06-24T09:41:39;5.13;;;3.73;;
7539;SDS011;3811;49.006;12.076;2023-06-24T09:44:09;4.27;;;3.60;;
7539;SDS011;3811;49.006;12.076;2023-06-24T09:46:37;4.03;;;3.63;;
7539;SDS011;3811;49.006;12.076;2023-06-24T09:49:04;3.63;;;3.33;;
7539;SDS011;3811;49.006;12.076;2023-06-24T09:51:32;4.00;;;3.23;;
7539;SDS011;3811;49.006;12.076;2023-06-24T09:54:04;3.30;;;3.10;;
7539;SDS011;3811;49.006;12.076;2023-06-24T09:56:32;3.90;;;3.30;;
7539;SDS011;3811;49.006;12.076;2023-06-24T09:59:00;3.90;;;3.27;;
7539;SDS011;3811;49.006;12.076;2023-06-24T10:01:29;3.47;;;3.27;;
7539;SDS011;3811;49.006;12.076;2023-06-24T10:03:57;3.83;;;3.50;;
7539;SDS011;3811;49.006;12.076;2023-06-24T10:06:25;3.37;;;3.07;;
7539;SDS011;3811;49.006;12.076;2023-06-24T10:08:52;3.00;;;2.80;;
7539;SDS011;3811;49.006;12.076;2023-06-24T10:11:19;3.60;;;3.30;;
7539;SDS011;3811;49.006;12.076;2023-06-24T10:13:47;3.53;;;3.27;;
7539;SDS011;3811;49.006;12.076;2023-06-24T10:16:14;3.27;;;2.97;;
7539;SDS011;3811;49.006;12.076;2023-06-24T10:18:43;3.50;;;3.20;;
7539;SDS011;3811;49.006;12.076;2023-06-24T10:21:11;4.23;;;3.00;;
7539;SDS011;3811;49.006;12.076;2023-06-24T10:23:39;2.83;;;2.63;;
7539;SDS011;3811;49.006;12.076;2023-06-24T10:26:10;4.53;;;3.30;;
7539;SDS011;3811;49.006;12.076;2023-06-24T10:31:50;3.10;;;2.80;;
7539;SDS011;3811;49.006;12.076;2023-06-24T10:37:21;3.87;;;3.47;;
7539;SDS011;3811;49.006;12.076;2023-06-24T10:39:50;3.60;;;3.30;;
7539;SDS011;3811;49.006;12.076;2023-06-24T10:45:19;3.40;;;3.10;;
7539;SDS011;3811;49.006;12.076;2023-06-24T10:47:48;3.13;;;2.90;;
7539;SDS011;3811;49.006;12.076;2023-06-24T10:50:19;3.70;;;3.40;;
7539;SDS011;3811;49.006;12.076;2023-06-24T10:52:48;4.47;;;3.17;;
7539;SDS011;3811;49.006;12.076;2023-06-24T10:55:20;3.37;;;3.17;;
7539;SDS011;3811;49.006;12.076;2023-06-24T10:57:48;3.33;;;3.00;;
7539;SDS011;3811;49.006;12.076;2023-06-24T11:00:16;4.03;;;3.30;;
7539;SDS011;3811;49.006;12.076;2023-06-24T11:02:43;4.60;;;3.20;;
7539;SDS011;3811;49.006;12.076;2023-06-24T11:05:11;3.30;;;2.93;;
7539;SDS011;3811;49.006;12.076;2023-06-24T11:07:39;3.03;;;2.83;;
7539;SDS011;3811;49.006;12.076;2023-06-24T11:10:07;3.10;;;2.77;;
7539;SDS011;3811;49.006;12.076;2023-06-24T11:12:37;2.90;;;2.70;;
7539;SDS011;3811;49.006;12.076;2023-06-24T11:15:06;2.90;;;2.70;;
7539;SDS011;3811;49.006;12.076;2023-06-24T11:17:34;3.70;;;2.73;;
7539;SDS011;3811;49.006;12.076;2023-06-24T11:20:02;4.53;;;3.00;;
7539;SDS011;3811;49.006;12.076;2023-06-24T11:22:33;2.83;;;2.63;;
7539;SDS011;3811;49.006;12.076;2023-06-24T11:25:05;3.30;;;3.10;;
7539;SDS011;3811;49.006;12.076;2023-06-24T11:27:32;3.20;;;3.00;;
7539;SDS011;3811;49.006;12.076;2023-06-24T11:29:59;3.40;;;3.10;;
7539;SDS011;3811;49.006;12.076;2023-06-24T11:32:34;3.50;;;3.20;;
7539;SDS011;3811;49.006;12.076;2023-06-24T11:35:03;3.53;;;3.22;;
7539;SDS011;3811;49.006;12.076;2023-06-24T11:37:31;3.33;;;3.10;;
7539;SDS011;3811;49.006;12.076;2023-06-24T11:40:02;3.30;;;3.00;;
7539;SDS011;3811;49.006;12.076;2023-06-24T11:42:31;3.25;;;2.60;;
7539;SDS011;3811;49.006;12.076;2023-06-24T11:45:01;3.85;;;2.78;;
7539;SDS011;3811;49.006;12.076;2023-06-24T11:47:31;3.20;;;3.00;;
7539;SDS011;3811;49.006;12.076;2023-06-24T11:49:58;3.28;;;2.97;;
7539;SDS011;3811;49.006;12.076;2023-06-24T11:52:31;3.17;;;2.88;;
7539;SDS011;3811;49.006;12.076;2023-06-24T11:54:59;3.27;;;2.97;;
7539;SDS011;3811;49.006;12.076;2023-06-24T12:00:20;3.33;;;3.10;;
7539;SDS011;3811;49.006;12.076;2023-06-24T12:02:49;3.33;;;3.00;;
7539;SDS011;3811;49.006;12.076;2023-06-24T12:05:21;3.33;;;2.97;;
7539;SDS011;3811;49.006;12.076;2023-06-24T12:07:54;3.37;;;3.17;;
7539;SDS011;3811;49.006;12.076;2023-06-24T12:10:25;3.13;;;2.93;;
7539;SDS011;3811;49.006;12.076;2023-06-24T12:12:55;3.10;;;2.90;;
7539;SDS011;3811;49.006;12.076;2023-06-24T12:15:22;3.20;;;3.00;;
7539;SDS011;3811;49.006;12.076;2023-06-24T12:17:49;3.08;;;2.88;;
7539;SDS011;3811;49.006;12.076;2023-06-24T12:20:17;3.38;;;3.15;;
7539;SDS011;3811;49.006;12.076;2023-06-24T12:22:44;3.45;;;3.15;;
7539;SDS011;3811;49.006;12.076;2023-06-24T12:25:12;3.00;;;2.70;;
7539;SDS011;3811;49.006;12.076;2023-06-24T12:27:39;3.90;;;3.30;;
7539;SDS011;3811;49.006;12.076;2023-06-24T12:30:08;4.50;;;3.07;;
7539;SDS011;3811;49.006;12.076;2023-06-24T12:32:36;3.40;;;3.10;;
7539;SDS011;3811;49.006;12.076;2023-06-24T12:35:03;3.07;;;2.87;;
7539;SDS011;3811;49.006;12.076;2023-06-24T12:37:30;3.60;;;3.30;;
7539;SDS011;3811;49.006;12.076;2023-06-24T12:39:58;3.33;;;3.03;;
7539;SDS011;3811;49.006;12.076;2023-06-24T12:42:25;3.50;;;3.20;;
7539;SDS011;3811;49.006;12.076;2023-06-24T12:44:52;3.43;;;3.13;;
7539;SDS011;3811;49.006;12.076;2023-06-24T12:47:21;3.40;;;3.10;;
7539;SDS011;3811;49.006;12.076;2023-06-24T12:49:48;3.43;;;3.13;;
7539;SDS011;3811;49.006;12.076;2023-06-24T12:52:15;3.07;;;2.87;;
7539;SDS011;3811;49.006;12.076;2023-06-24T12:54:43;3.23;;;3.03;;
7539;SDS011;3811;49.006;12.076;2023-06-24T12:57:10;3.33;;;3.03;;
7539;SDS011;3811;49.006;12.076;2023-06-24T12:59:37;2.85;;;2.65;;
7539;SDS011;3811;49.006;12.076;2023-06-24T13:02:04;3.10;;;2.90;;
7539;SDS011;3811;49.006;12.076;2023-06-24T13:04:33;3.20;;;3.00;;
7539;SDS011;3811;49.006;12.076;2023-06-24T13:07:00;3.35;;;3.10;;
7539;SDS011;3811;49.006;12.076;2023-06-24T13:09:28;3.40;;;3.10;;
7539;SDS011;3811;49.006;12.076;2023-06-24T13:11:55;3.53;;;3.22;;
7539;SDS011;3811;49.006;12.076;2023-06-24T13:14:22;3.63;;;3.30;;
7539;SDS011;3811;49.006;12.076;2023-06-24T13:16:52;3.25;;;3.03;;
7539;SDS011;3811;49.006;12.076;2023-06-24T13:19:19;3.20;;;2.90;;
7539;SDS011;3811;49.006;12.076;2023-06-24T13:21:47;4.07;;;2.83;;
7539;SDS011;3811;49.006;12.076;2023-06-24T13:24:14;3.20;;;2.90;;
7539;SDS011;3811;49.006;12.076;2023-06-24T13:26:43;3.57;;;3.27;;
7539;SDS011;3811;49.006;12.076;2023-06-24T13:29:10;3.30;;;3.00;;
7539;SDS011;3811;49.006;12.076;2023-06-24T13:31:36;4.07;;;3.33;;
7539;SDS011;3811;49.006;12.076;2023-06-24T13:34:04;3.45;;;3.20;;
7539;SDS011;3811;49.006;12.076;2023-06-24T13:36:32;2.95;;;2.75;;
7539;SDS011;3811;49.006;12.076;2023-06-24T13:39:02;3.45;;;3.25;;
7539;SDS011;3811;49.006;12.076;2023-06-24T13:41:29;2.95;;;2.75;;
7539;SDS011;3811;49.006;12.076;2023-06-24T13:43:57;3.35;;;3.15;;
7539;SDS011;3811;49.006;12.076;2023-06-24T13:46:25;3.03;;;2.83;;
7539;SDS011;3811;49.006;12.076;2023-06-24T13:48:52;3.67;;;3.20;;
7539;SDS011;3811;49.006;12.076;2023-06-24T13:51:19;3.05;;;2.85;;
7539;SDS011;3811;49.006;12.076;2023-06-24T13:53:47;3.20;;;3.00;;
7539;SDS011;3811;49.006;12.076;2023-06-24T13:56:16;3.22;;;3.03;;
7539;SDS011;3811;49.006;12.076;2023-06-24T13:58:43;3.20;;;3.00;;
7539;SDS011;3811;49.006;12.076;2023-06-24T14:01:11;2.92;;;2.72;;
7539;SDS011;3811;49.006;12.076;2023-06-24T14:03:38;3.40;;;3.10;;
7539;SDS011;3811;49.006;12.076;2023-06-24T14:06:05;3.63;;;3.30;;
7539;SDS011;3811;49.006;12.076;2023-06-24T14:08:32;3.55;;;3.28;;
7539;SDS011;3811;49.006;12.076;2023-06-24T14:11:01;3.20;;;3.00;;
7539;SDS011;3811;49.006;12.076;2023-06-24T14:13:30;3.13;;;2.92;;
7539;SDS011;3811;49.006;12.076;2023-06-24T14:15:57;3.40;;;3.10;;
7539;SDS011;3811;49.006;12.076;2023-06-24T14:18:25;3.15;;;2.95;;
7539;SDS011;3811;49.006;12.076;2023-06-24T14:20:52;3.92;;;3.40;;
7539;SDS011;3811;49.006;12.076;2023-06-24T14:23:19;3.10;;;2.90;;
7539;SDS011;3811;49.006;12.076;2023-06-24T14:25:46;4.78;;;3.30;;
7539;SDS011;3811;49.006;12.076;2023-06-24T14:28:13;3.15;;;2.67;;
7539;SDS011;3811;49.006;12.076;2023-06-24T14:30:42;2.83;;;2.63;;
7539;SDS011;3811;49.006;12.076;2023-06-24T14:33:08;3.58;;;3.25;;
7539;SDS011;3811;49.006;12.076;2023-06-24T14:35:36;3.33;;;3.13;;
7539;SDS011;3811;49.006;12.076;2023-06-24T14:38:03;3.20;;;2.83;;
7539;SDS011;3811;49.006;12.076;2023-06-24T14:40:30;3.75;;;3.17;;
7539;SDS011;3811;49.006;12.076;2023-06-24T14:42:57;3.00;;;2.80;;
7539;SDS011;3811;49.006;12.076;2023-06-24T14:45:24;3.15;;;2.95;;
7539;SDS011;3811;49.006;12.076;2023-06-24T14:47:52;4.50;;;3.15;;
7539;SDS011;3811;49.006;12.076;2023-06-24T14:50:19;3.13;;;2.90;;
7539;SDS011;3811;49.006;12.076;2023-06-24T14:52:47;3.20;;;2.70;;
7539;SDS011;3811;49.006;12.076;2023-06-24T14:55:14;4.55;;;3.17;;
7539;SDS011;3811;49.006;12.076;2023-06-24T14:57:41;4.78;;;3.40;;
7539;SDS011;3811;49.006;12.076;2023-06-24T15:00:09;3.97;;;3.55;;
7539;SDS011;3811;49.006;12.076;2023-06-24T15:02:37;3.72;;;3.42;;
7539;SDS011;3811;49.006;12.076;2023-06-24T15:05:05;3.15;;;2.95;;
7539;SDS011;3811;49.006;12.076;2023-06-24T15:07:34;3.65;;;3.35;;
7539;SDS011;3811;49.006;12.076;2023-06-24T15:10:03;3.17;;;2.97;;
7539;SDS011;3811;49.006;12.076;2023-06-24T15:12:30;3.35;;;3.05;;
7539;SDS011;3811;49.006;12.076;2023-06-24T15:14:59;3.47;;;3.17;;
7539;SDS011;3811;49.006;12.076;2023-06-24T15:17:26;3.00;;;2.80;;
7539;SDS011;3811;49.006;12.076;2023-06-24T15:19:54;3.05;;;2.83;;
7539;SDS011;3811;49.006;12.076;2023-06-24T15:22:23;3.22;;;3.00;;